Time;durP1;ratioP1;P1;durP2;ratioP2;P2;SDS_P1;SDS_P2;PMS_P1;PMS_P2;Temp;Humidity;BMP_temperature;BMP_pressure;BME280_temperature;BME280_humidity;BME280_pressure;Samples;Min_cycle;Max_cycle;Signal;HPM_P1;HPM_P2
2022/04/24 00:00:47;;;;;;;12.60;9.93;;;;;;;9.49;61.00;95577.05;1643603;87;21027;-83
2022/04/24 00:03:13;;;;;;;25.80;21.52;;;;;;;9.48;61.44;95578.05;1640518;86;21053;-82
2022/04/24 00:05:38;;;;;;;38.92;26.95;;;;;;;9.42;61.87;95568.43;1649274;86;21022;-82
2022/04/24 00:08:05;;;;;;;36.03;26.73;;;;;;;9.26;62.13;95564.37;1607997;88;20953;-82
2022/04/24 00:10:30;;;;;;;38.78;29.30;;;;;;;9.12;62.35;95567.13;1595802;88;21116;-82
2022/04/24 00:12:56;;;;;;;33.92;25.15;;;;;;;8.98;62.66;95559.28;1607164;88;20977;-82
2022/04/24 00:15:22;;;;;;;28.40;21.50;;;;;;;8.92;63.05;95557.94;1627235;88;21446;-82
2022/04/24 00:17:48;;;;;;;15.48;12.50;;;;;;;8.86;63.08;95559.51;1628272;87;20998;-82
2022/04/24 00:20:14;;;;;;;20.80;15.35;;;;;;;8.86;62.67;95548.34;1626731;87;21014;-83
2022/04/24 00:22:40;;;;;;;10.15;9.10;;;;;;;8.94;62.99;95545.09;1623170;87;21459;-82
2022/04/24 00:25:06;;;;;;;25.55;19.60;;;;;;;8.98;62.44;95532.08;1624645;87;20988;-82
2022/04/24 00:27:32;;;;;;;9.65;8.50;;;;;;;9.09;62.95;95536.39;1635311;87;20988;-83
2022/04/24 00:29:58;;;;;;;9.78;8.75;;;;;;;9.11;62.28;95533.94;1623006;87;20988;-82
2022/04/24 00:32:24;;;;;;;8.65;7.33;;;;;;;9.19;62.11;95533.76;1648791;86;21046;-82
2022/04/24 00:34:50;;;;;;;10.53;8.85;;;;;;;9.27;61.87;95531.48;1649695;86;21462;-82
2022/04/24 00:37:16;;;;;;;9.15;8.25;;;;;;;9.33;61.50;95524.24;1650209;86;21059;-83
2022/04/24 00:39:41;;;;;;;8.73;7.72;;;;;;;9.39;61.56;95516.97;1648518;86;21455;-82
2022/04/24 00:42:09;;;;;;;7.75;6.92;;;;;;;9.44;61.38;95514.61;1652142;86;21174;-82
2022/04/24 00:44:36;;;;;;;9.53;8.10;;;;;;;9.48;61.27;95521.00;1643530;86;21039;-82
2022/04/24 00:47:14;;;;;;;28.17;21.80;;;;;;;9.48;61.45;95519.70;1650063;86;21004;-82
2022/04/24 00:49:40;;;;;;;29.82;22.50;;;;;;;9.47;62.40;95520.70;1649678;86;21120;-82
2022/04/24 00:52:06;;;;;;;24.75;19.60;;;;;;;9.36;62.60;95511.38;1661285;86;21436;-82
2022/04/24 00:54:32;;;;;;;28.15;21.40;;;;;;;9.25;62.30;95516.12;1648948;86;21059;-82
2022/04/24 00:56:58;;;;;;;26.10;19.48;;;;;;;9.20;62.88;95522.39;1608889;88;21122;-83
2022/04/24 00:59:23;;;;;;;24.20;18.50;;;;;;;9.13;62.74;95524.17;1608615;89;20965;-83
2022/04/24 01:01:49;;;;;;;22.32;17.45;;;;;;;9.09;62.87;95521.64;1613119;88;22394;-83
2022/04/24 01:04:15;;;;;;;22.62;16.30;;;;;;;9.04;62.61;95518.84;1635918;87;21006;-83
2022/04/24 01:06:42;;;;;;;22.30;17.37;;;;;;;9.00;63.02;95518.44;1613949;88;21076;-82
2022/04/24 01:09:19;;;;;;;20.68;16.07;;;;;;;8.96;63.45;95519.02;1625931;87;21000;-82
2022/04/24 01:11:48;;;;;;;19.00;15.32;;;;;;;8.93;63.81;95514.99;1616482;87;21023;-82
2022/04/24 01:14:16;;;;;;;16.52;13.15;;;;;;;8.92;64.11;95516.48;1625790;87;21023;-82
2022/04/24 01:16:41;;;;;;;18.10;14.23;;;;;;;8.87;63.68;95517.56;1623509;87;21036;-82
2022/04/24 01:19:08;;;;;;;15.80;12.65;;;;;;;8.85;64.03;95511.78;1626836;87;20969;-82
2022/04/24 01:21:33;;;;;;;15.85;12.05;;;;;;;8.86;64.01;95510.78;1628218;87;21011;-82
2022/04/24 01:23:59;;;;;;;16.73;13.78;;;;;;;8.90;64.22;95507.61;1630499;87;21076;-83
2022/04/24 01:26:25;;;;;;;16.35;12.45;;;;;;;8.93;64.43;95505.92;1628074;87;20999;-82
2022/04/24 01:28:51;;;;;;;11.35;9.38;;;;;;;8.94;64.52;95499.75;1612665;87;21044;-82
2022/04/24 01:31:17;;;;;;;9.80;8.30;;;;;;;8.95;64.65;95495.39;1620555;87;21016;-83
2022/04/24 01:33:45;;;;;;;7.22;6.30;;;;;;;8.95;64.93;95487.13;1649631;86;20983;-82
2022/04/24 01:36:12;;;;;;;7.65;6.58;;;;;;;8.96;65.07;95480.16;1606242;88;20954;-82
2022/04/24 01:38:42;;;;;;;7.22;6.53;;;;;;;8.94;65.35;95477.73;1642528;86;21398;-83
2022/04/24 01:41:08;;;;;;;6.45;5.80;;;;;;;8.92;65.38;95469.35;1648269;86;21074;-83
2022/04/24 01:43:36;;;;;;;9.75;8.45;;;;;;;8.93;65.52;95479.22;1649059;86;21032;-83
2022/04/24 01:46:03;;;;;;;10.80;8.93;;;;;;;8.90;66.03;95483.00;1634540;87;20979;-83
2022/04/24 01:48:32;;;;;;;10.95;9.68;;;;;;;8.89;65.92;95471.04;1646059;86;21404;-82
2022/04/24 01:50:58;;;;;;;17.80;14.75;;;;;;;8.87;65.78;95470.44;1651439;86;21473;-82
2022/04/24 01:53:23;;;;;;;15.95;13.72;;;;;;;8.87;65.22;95477.41;1654773;86;21064;-82
2022/04/24 01:55:49;;;;;;;13.10;9.88;;;;;;;8.88;64.80;95481.10;1652381;86;21393;-82
2022/04/24 01:58:15;;;;;;;13.68;11.78;;;;;;;8.88;65.41;95486.28;1645255;86;21043;-82
2022/04/24 02:00:41;;;;;;;11.60;10.15;;;;;;;8.87;64.89;95479.50;1647061;86;21018;-82
2022/04/24 02:03:07;;;;;;;13.60;10.75;;;;;;;8.89;64.82;95473.63;1643876;86;20995;-82
2022/04/24 02:05:33;;;;;;;8.68;7.78;;;;;;;8.93;65.11;95472.25;1652093;86;21413;-83
2022/04/24 02:07:58;;;;;;;13.53;11.55;;;;;;;8.94;66.13;95466.07;1647428;86;20983;-83
2022/04/24 02:10:24;;;;;;;16.00;13.55;;;;;;;8.94;66.20;95471.25;1651241;86;21023;-82
2022/04/24 02:12:50;;;;;;;14.25;12.43;;;;;;;8.93;66.20;95464.47;1647300;86;21086;-82
2022/04/24 02:15:17;;;;;;;14.70;12.40;;;;;;;8.91;66.23;95455.30;1652176;86;21029;-82
2022/04/24 02:17:43;;;;;;;13.15;11.75;;;;;;;8.91;66.14;95447.03;1647684;86;21070;-83
2022/04/24 02:20:10;;;;;;;11.38;10.08;;;;;;;8.89;66.66;95445.13;1651911;86;21021;-82
2022/04/24 02:22:35;;;;;;;10.88;9.60;;;;;;;8.86;66.76;95443.44;1648817;86;21032;-82
2022/04/24 02:25:01;;;;;;;11.22;9.90;;;;;;;8.82;67.07;95445.62;1655664;86;20995;-83
2022/04/24 02:27:27;;;;;;;11.40;7.95;;;;;;;8.80;66.80;95446.81;1649152;86;21396;-82
2022/04/24 02:29:53;;;;;;;8.65;7.75;;;;;;;8.77;67.37;95444.08;1648818;86;21071;-82
2022/04/24 02:32:19;;;;;;;10.15;8.58;;;;;;;8.77;67.55;95447.17;1646022;86;21373;-83
2022/04/24 02:34:45;;;;;;;14.33;11.30;;;;;;;8.78;67.54;95441.80;1650033;86;20996;-82
2022/04/24 02:37:10;;;;;;;15.53;12.30;;;;;;;8.83;67.37;95443.83;1653388;86;21068;-80
2022/04/24 02:39:36;;;;;;;13.32;11.15;;;;;;;8.81;67.31;95438.84;1647084;86;20967;-80
2022/04/24 02:42:03;;;;;;;13.83;11.83;;;;;;;8.80;67.83;95435.95;1650298;86;21063;-80
2022/04/24 02:44:28;;;;;;;18.02;13.55;;;;;;;8.83;67.85;95440.73;1650394;86;21024;-80
2022/04/24 02:46:54;;;;;;;17.02;13.85;;;;;;;8.78;67.19;95441.00;1651313;86;21132;-80
2022/04/24 02:49:20;;;;;;;14.58;12.33;;;;;;;8.74;68.09;95440.59;1648341;86;21562;-79
2022/04/24 02:51:45;;;;;;;15.40;11.85;;;;;;;8.71;68.14;95434.50;1643952;86;21097;-80
2022/04/24 02:54:11;;;;;;;14.30;11.12;;;;;;;8.71;68.35;95435.80;1604228;88;21457;-79
2022/04/24 02:56:37;;;;;;;16.40;14.13;;;;;;;8.72;68.43;95427.03;1603005;88;21006;-79
2022/04/24 02:59:03;;;;;;;14.60;12.23;;;;;;;8.68;68.54;95431.81;1609951;88;21019;-80
2022/04/24 03:01:30;;;;;;;14.00;12.25;;;;;;;8.65;68.82;95427.02;1615449;88;20988;-80
2022/04/24 03:03:57;;;;;;;13.90;12.05;;;;;;;8.64;68.90;95433.69;1604087;88;21046;-80
2022/04/24 03:06:23;;;;;;;12.23;10.23;;;;;;;8.64;68.61;95438.38;1607247;89;20997;-80
2022/04/24 03:08:48;;;;;;;13.08;10.85;;;;;;;8.67;68.69;95443.66;1641516;86;21038;-80
2022/04/24 03:11:15;;;;;;;13.55;10.43;;;;;;;8.64;69.24;95432.39;1647792;86;21051;-80
2022/04/24 03:13:41;;;;;;;10.75;9.45;;;;;;;8.63;69.82;95432.89;1649879;86;21499;-80
2022/04/24 03:16:07;;;;;;;8.98;8.05;;;;;;;8.63;70.61;95424.33;1651147;86;21031;-80
2022/04/24 03:18:33;;;;;;;9.05;7.90;;;;;;;8.59;72.29;95423.89;1648623;86;21066;-80
2022/04/24 03:20:59;;;;;;;7.55;6.85;;;;;;;8.54;72.52;95421.08;1598647;88;21014;-80
2022/04/24 03:23:24;;;;;;;8.10;7.30;;;;;;;8.57;73.20;95423.28;1608049;89;21066;-79
2022/04/24 03:25:50;;;;;;;9.45;7.28;;;;;;;8.60;73.53;95423.39;1624462;88;21356;-80
2022/04/24 03:28:17;;;;;;;9.25;7.50;;;;;;;8.61;74.01;95416.72;1621065;88;21080;-80
2022/04/24 03:30:43;;;;;;;8.78;7.87;;;;;;;8.63;74.26;95419.94;1599980;88;21023;-80
2022/04/24 03:33:10;;;;;;;8.93;8.03;;;;;;;8.66;74.70;95423.44;1610042;88;21055;-80
2022/04/24 03:35:36;;;;;;;10.15;8.68;;;;;;;8.65;74.74;95413.27;1605459;88;21059;-80
2022/04/24 03:38:01;;;;;;;8.85;7.50;;;;;;;8.65;75.53;95409.39;1649038;86;21071;-80
2022/04/24 03:40:27;;;;;;;7.95;7.15;;;;;;;8.63;76.55;95407.00;1655898;86;21385;-79
2022/04/24 03:42:53;;;;;;;7.83;7.03;;;;;;;8.60;77.11;95413.03;1612337;89;21677;-79
2022/04/24 03:45:19;;;;;;;8.38;6.72;;;;;;;8.56;78.33;95401.47;1632285;86;20997;-79
2022/04/24 03:47:45;;;;;;;8.73;7.72;;;;;;;8.58;77.68;95407.25;1643112;86;20994;-80
2022/04/24 03:50:11;;;;;;;6.50;5.85;;;;;;;8.64;77.65;95406.50;1647619;86;21072;-79
2022/04/24 03:52:37;;;;;;;5.85;5.33;;;;;;;8.69;78.86;95409.30;1649050;86;21028;-79
2022/04/24 03:55:04;;;;;;;6.05;5.45;;;;;;;8.73;78.75;95404.03;1655035;86;20992;-79
2022/04/24 03:57:30;;;;;;;5.72;5.08;;;;;;;8.76;78.74;95417.08;1653243;86;21088;-79
2022/04/24 03:59:56;;;;;;;6.75;5.45;;;;;;;8.79;79.92;95421.90;1646214;86;21430;-79
2022/04/24 04:02:23;;;;;;;6.35;5.40;;;;;;;8.81;79.29;95416.83;1651129;86;21062;-79
2022/04/24 04:04:49;;;;;;;6.15;5.55;;;;;;;8.84;79.17;95423.41;1646654;86;21090;-80
2022/04/24 04:07:14;;;;;;;6.53;5.65;;;;;;;8.86;79.67;95414.44;1656105;86;21521;-79
2022/04/24 04:09:40;;;;;;;7.10;5.87;;;;;;;8.85;79.51;95419.32;1638357;86;21066;-79
2022/04/24 04:12:08;;;;;;;7.90;5.62;;;;;;;8.84;79.82;95409.95;1650900;86;21150;-79
2022/04/24 04:14:33;;;;;;;6.37;5.37;;;;;;;8.86;79.96;95404.58;1605962;88;21053;-79
2022/04/24 04:16:59;;;;;;;5.35;4.85;;;;;;;8.85;80.41;95402.48;1632639;87;21001;-79
2022/04/24 04:19:25;;;;;;;6.03;4.95;;;;;;;8.85;80.25;95414.14;1650193;86;21102;-80
2022/04/24 04:21:51;;;;;;;6.08;4.92;;;;;;;8.89;79.84;95403.69;1649923;86;21404;-79
2022/04/24 04:24:17;;;;;;;5.72;5.12;;;;;;;8.94;80.25;95400.00;1649705;86;21084;-79
2022/04/24 04:26:44;;;;;;;7.67;5.83;;;;;;;8.96;80.86;95397.25;1647477;86;21016;-79
2022/04/24 04:29:09;;;;;;;6.58;5.87;;;;;;;8.93;80.85;95404.88;1644415;86;21060;-79
2022/04/24 04:31:35;;;;;;;9.43;7.85;;;;;;;8.88;80.88;95402.09;1634850;86;21004;-79
2022/04/24 04:34:01;;;;;;;11.75;10.55;;;;;;;8.85;81.46;95410.75;1637973;86;20984;-80
2022/04/24 04:36:27;;;;;;;10.88;9.75;;;;;;;8.78;80.41;95417.69;1638219;86;21473;-79
2022/04/24 04:38:53;;;;;;;9.58;8.68;;;;;;;8.73;80.95;95415.68;1646792;86;21020;-80
2022/04/24 04:41:19;;;;;;;9.55;8.65;;;;;;;8.67;81.18;95419.86;1641196;86;21113;-79
2022/04/24 04:43:44;;;;;;;10.65;9.65;;;;;;;8.65;80.70;95419.25;1645717;86;21388;-79
2022/04/24 04:46:10;;;;;;;11.53;10.43;;;;;;;8.65;81.17;95420.55;1637244;86;20992;-80
2022/04/24 04:48:36;;;;;;;9.98;8.98;;;;;;;8.65;81.45;95413.27;1637108;86;20975;-79
2022/04/24 04:51:01;;;;;;;9.53;8.35;;;;;;;8.63;81.27;95414.77;1641863;86;21397;-79
2022/04/24 04:53:27;;;;;;;9.60;8.63;;;;;;;8.62;81.37;95416.22;1638248;86;20981;-80
2022/04/24 04:55:53;;;;;;;9.38;8.48;;;;;;;8.58;81.38;95413.72;1646862;86;21052;-79
2022/04/24 04:58:18;;;;;;;9.10;8.20;;;;;;;8.56;81.58;95411.83;1635112;86;21052;-83
2022/04/24 05:00:44;;;;;;;10.30;8.55;;;;;;;8.55;81.76;95411.52;1640394;86;21354;-82
2022/04/24 05:03:10;;;;;;;9.58;8.58;;;;;;;8.58;82.06;95422.78;1636974;86;21002;-82
2022/04/24 05:05:35;;;;;;;10.43;9.43;;;;;;;8.59;82.19;95414.83;1646836;85;21038;-82
2022/04/24 05:08:03;;;;;;;9.40;8.30;;;;;;;8.60;82.43;95415.63;1644025;85;21044;-82
2022/04/24 05:10:29;;;;;;;8.83;7.97;;;;;;;8.62;82.28;95420.11;1652912;85;20990;-82
2022/04/24 05:12:55;;;;;;;9.55;7.72;;;;;;;8.67;82.38;95413.37;1647541;85;20978;-82
2022/04/24 05:15:21;;;;;;;8.13;7.33;;;;;;;8.70;82.06;95418.17;1627940;86;21080;-82
2022/04/24 05:17:47;;;;;;;8.18;7.37;;;;;;;8.73;82.32;95421.66;1628349;86;21511;-82
2022/04/24 05:20:13;;;;;;;8.10;7.30;;;;;;;8.73;81.82;95415.68;1654178;85;21050;-82
2022/04/24 05:22:40;;;;;;;8.35;7.50;;;;;;;8.75;82.05;95416.78;1654410;85;21054;-82
2022/04/24 05:25:07;;;;;;;8.95;7.62;;;;;;;8.77;81.56;95421.27;1653707;85;21035;-82
2022/04/24 05:27:33;;;;;;;9.00;8.10;;;;;;;8.81;80.68;95416.83;1650458;85;21130;-82
2022/04/24 05:29:59;;;;;;;9.35;8.35;;;;;;;8.88;80.63;95414.24;1653724;85;21077;-81
2022/04/24 05:32:25;;;;;;;7.83;7.03;;;;;;;8.90;80.82;95409.66;1650677;85;21038;-82
2022/04/24 05:34:50;;;;;;;9.38;8.38;;;;;;;8.91;80.67;95405.58;1648211;85;21011;-82
2022/04/24 05:37:16;;;;;;;8.68;7.78;;;;;;;8.94;81.36;95405.19;1651457;85;21105;-82
2022/04/24 05:39:42;;;;;;;8.18;7.28;;;;;;;8.96;80.62;95394.16;1653544;85;20955;-82
2022/04/24 05:42:08;;;;;;;8.13;6.53;;;;;;;9.05;80.87;95397.35;1656433;85;21006;-82
2022/04/24 05:44:33;;;;;;;8.60;7.70;;;;;;;9.13;80.39;95391.20;1649909;85;21412;-82
2022/04/24 05:47:00;;;;;;;8.70;7.53;;;;;;;9.20;81.25;95394.09;1663586;85;21046;-82
2022/04/24 05:49:26;;;;;;;5.58;4.95;;;;;;;9.25;79.73;95391.70;1655831;85;21005;-82
2022/04/24 05:51:52;;;;;;;8.55;7.50;;;;;;;9.28;80.02;95379.67;1657958;85;21058;-82
2022/04/24 05:54:18;;;;;;;8.90;7.83;;;;;;;9.35;80.28;95387.44;1647951;85;21015;-83
2022/04/24 05:56:43;;;;;;;7.95;7.15;;;;;;;9.45;79.76;95381.87;1652518;85;21402;-82
2022/04/24 05:59:09;;;;;;;7.33;6.62;;;;;;;9.55;80.68;95371.89;1642396;85;20978;-82
2022/04/24 06:01:36;;;;;;;7.15;6.45;;;;;;;9.68;80.16;95376.28;1659402;85;20982;-82
2022/04/24 06:04:02;;;;;;;8.33;7.10;;;;;;;9.78;79.00;95374.09;1661002;85;21002;-82
2022/04/24 06:06:30;;;;;;;11.68;7.75;;;;;;;9.81;78.31;95371.09;1650779;85;21389;-81
2022/04/24 06:08:56;;;;;;;7.08;6.35;;;;;;;9.83;78.75;95367.80;1639148;86;21435;-81
2022/04/24 06:11:22;;;;;;;7.50;6.20;;;;;;;9.85;77.45;95372.28;1626396;86;21427;-81
2022/04/24 06:13:48;;;;;;;6.90;6.20;;;;;;;9.73;78.46;95346.64;1650029;86;21432;-82
2022/04/24 06:16:14;;;;;;;8.00;6.10;;;;;;;9.93;77.47;95379.87;1648502;86;21071;-82
2022/04/24 06:18:40;;;;;;;6.70;6.10;;;;;;;9.96;77.14;95368.28;1644140;86;21055;-82
2022/04/24 06:21:05;;;;;;;7.47;6.67;;;;;;;10.00;77.96;95367.67;1635441;86;20980;-82
2022/04/24 06:23:31;;;;;;;7.62;6.85;;;;;;;10.01;77.45;95361.48;1645043;86;21085;-82
2022/04/24 06:25:58;;;;;;;7.50;6.28;;;;;;;10.09;76.65;95363.07;1636987;86;21013;-82
2022/04/24 06:28:25;;;;;;;6.85;5.72;;;;;;;10.12;77.33;95364.75;1646659;86;21065;-81
2022/04/24 06:30:52;;;;;;;6.85;6.25;;;;;;;10.17;76.12;95358.44;1640080;86;21026;-81
2022/04/24 06:33:18;;;;;;;5.95;5.35;;;;;;;10.22;76.21;95364.34;1640108;86;21076;-81
2022/04/24 06:35:45;;;;;;;5.95;5.37;;;;;;;10.26;75.60;95362.16;1643330;86;20988;-81
2022/04/24 06:38:11;;;;;;;7.15;6.15;;;;;;;10.30;76.31;95364.64;1634369;86;20991;-81
2022/04/24 06:40:37;;;;;;;7.58;6.25;;;;;;;10.34;75.90;95365.31;1639680;86;21022;-81
2022/04/24 06:43:05;;;;;;;6.65;5.92;;;;;;;10.38;75.66;95361.80;1640898;86;21100;-81
2022/04/24 06:45:38;;;;;;;6.70;6.00;;;;;;;10.47;75.64;95357.98;1649030;86;21044;-80
2022/04/24 06:48:11;;;;;;;6.50;5.85;;;;;;;10.53;75.27;95354.56;1642785;86;21091;-82
2022/04/24 06:50:40;;;;;;;5.85;5.25;;;;;;;10.58;75.04;95348.77;1642771;86;21009;-80
2022/04/24 06:53:14;;;;;;;6.83;6.15;;;;;;;10.63;75.07;95351.53;1638808;86;21007;-80
2022/04/24 06:55:42;;;;;;;6.90;6.20;;;;;;;10.69;75.09;95348.09;1640064;86;21373;-80
2022/04/24 06:58:09;;;;;;;5.97;5.37;;;;;;;10.78;75.03;95351.56;1637803;86;21357;-80
2022/04/24 07:00:38;;;;;;;5.78;5.28;;;;;;;10.85;74.63;95349.42;1640825;86;21020;-80
2022/04/24 07:03:17;;;;;;;5.40;4.85;;;;;;;10.96;74.73;95344.87;1635799;86;21053;-79
2022/04/24 07:05:43;;;;;;;6.70;6.00;;;;;;;11.07;74.74;95337.71;1636672;85;20994;-81
2022/04/24 07:08:09;;;;;;;6.17;5.55;;;;;;;11.19;75.56;95336.52;1648601;85;21018;-81
2022/04/24 07:10:35;;;;;;;5.00;4.50;;;;;;;11.27;74.50;95334.47;1655234;85;20954;-81
2022/04/24 07:13:01;;;;;;;6.30;5.55;;;;;;;11.32;72.75;95333.31;1652872;85;21039;-80
2022/04/24 07:15:30;;;;;;;5.90;5.30;;;;;;;11.32;72.92;95327.33;1652708;85;21476;-81
2022/04/24 07:17:56;;;;;;;5.90;5.40;;;;;;;11.34;72.58;95322.70;1644517;85;21090;-81
2022/04/24 07:20:22;;;;;;;5.03;4.53;;;;;;;11.31;73.51;95321.83;1642603;85;21059;-81
2022/04/24 07:22:54;;;;;;;5.58;5.03;;;;;;;11.33;73.03;95323.71;1648259;85;20970;-82
2022/04/24 07:25:24;;;;;;;;;;;;;;;11.30;72.47;95317.64;1653788;85;21031;-82
2022/04/24 07:27:50;;;;;;;5.50;4.90;;;;;;;11.31;72.52;95310.12;1652864;85;20186;-82
2022/04/24 07:30:17;;;;;;;6.20;4.78;;;;;;;11.28;72.70;95320.45;1655685;85;21065;-82
2022/04/24 07:32:51;;;;;;;5.35;4.85;;;;;;;11.24;72.56;95321.09;1658087;85;20990;-82
2022/04/24 07:35:25;;;;;;;5.22;4.72;;;;;;;11.22;72.34;95321.28;1655626;85;20951;-85
2022/04/24 07:37:51;;;;;;;5.12;4.62;;;;;;;11.18;73.16;95319.32;1655192;85;21347;-82
2022/04/24 07:40:19;;;;;;;5.78;5.17;;;;;;;11.13;73.05;95318.16;1653825;85;21067;-82
2022/04/24 07:42:55;;;;;;;5.53;5.03;;;;;;;11.09;72.78;95324.00;1665063;85;21094;-82
2022/04/24 07:45:23;;;;;;;5.58;4.90;;;;;;;11.11;72.96;95321.47;1664366;85;21007;-82
2022/04/24 07:47:51;;;;;;;6.33;5.12;;;;;;;11.13;72.67;95323.86;1659764;85;20983;-82
2022/04/24 07:50:18;;;;;;;6.00;5.40;;;;;;;11.12;72.92;95323.06;1662823;85;20959;-82
2022/04/24 07:52:44;;;;;;;5.05;4.42;;;;;;;11.08;72.86;95319.30;1666928;85;21010;-83
2022/04/24 07:55:11;;;;;;;6.33;5.10;;;;;;;11.07;72.24;95313.81;1667725;85;20979;-82
2022/04/24 07:57:39;;;;;;;7.20;6.47;;;;;;;11.04;72.60;95315.50;1663217;85;21041;-82
2022/04/24 08:00:09;;;;;;;8.93;7.10;;;;;;;11.00;72.81;95312.24;1656133;85;21416;-82
2022/04/24 08:02:56;;;;;;;6.25;5.35;;;;;;;10.99;73.63;95310.66;1660165;85;21330;-82
2022/04/24 08:05:24;;;;;;;6.67;5.15;;;;;;;10.95;73.79;95319.88;1626698;86;21030;-82
2022/04/24 08:07:51;;;;;;;5.35;4.85;;;;;;;10.89;72.99;95311.10;1662629;85;21070;-82
2022/04/24 08:10:17;;;;;;;6.67;5.42;;;;;;;10.86;73.45;95315.92;1661897;85;20971;-82
2022/04/24 08:12:43;;;;;;;5.33;4.83;;;;;;;10.86;72.98;95315.42;1652203;85;21072;-82
2022/04/24 08:15:09;;;;;;;4.62;4.00;;;;;;;10.82;72.42;95312.95;1663560;85;20986;-82
2022/04/24 08:17:35;;;;;;;5.33;4.83;;;;;;;10.75;72.52;95309.61;1658870;85;20984;-82
2022/04/24 08:20:03;;;;;;;5.45;4.83;;;;;;;10.69;72.32;95313.82;1651468;85;21022;-82
2022/04/24 08:22:46;;;;;;;6.03;5.42;;;;;;;10.67;73.06;95308.04;1665075;85;21015;-82
2022/04/24 08:25:15;;;;;;;7.30;5.72;;;;;;;10.63;72.89;95301.67;1646506;85;21070;-82
2022/04/24 08:27:42;;;;;;;5.20;4.37;;;;;;;10.69;73.70;95303.93;1645223;85;20939;-82
2022/04/24 08:30:10;;;;;;;6.17;5.58;;;;;;;10.73;72.76;95306.40;1658699;85;21352;-82
2022/04/24 08:32:36;;;;;;;5.90;5.35;;;;;;;10.74;72.94;95311.41;1661909;85;21046;-82
2022/04/24 08:35:05;;;;;;;5.05;4.53;;;;;;;10.78;73.04;95308.69;1657939;85;21038;-82
2022/04/24 08:37:30;;;;;;;5.50;5.00;;;;;;;10.81;73.13;95308.77;1670215;85;21063;-81
2022/04/24 08:39:56;;;;;;;5.53;4.97;;;;;;;10.81;72.56;95300.47;1644964;85;21610;-82
2022/04/24 08:42:22;;;;;;;6.65;5.05;;;;;;;10.84;72.91;95297.95;1654418;85;21021;-81
2022/04/24 08:44:49;;;;;;;6.90;5.15;;;;;;;10.83;73.00;95294.55;1654782;85;21103;-82
2022/04/24 08:47:15;;;;;;;6.17;5.08;;;;;;;10.82;72.87;95292.17;1642499;85;21003;-82
2022/04/24 08:49:42;;;;;;;6.17;4.70;;;;;;;10.83;72.72;95290.66;1632866;87;21018;-82
2022/04/24 08:52:09;;;;;;;5.15;4.42;;;;;;;10.87;72.78;95293.63;1646962;85;21068;-82
2022/04/24 08:54:36;;;;;;;5.30;4.80;;;;;;;10.92;72.92;95285.22;1650111;85;20959;-82
2022/04/24 08:57:02;;;;;;;5.95;5.35;;;;;;;10.94;72.95;95287.91;1649804;85;21282;-82
2022/04/24 08:59:28;;;;;;;5.53;4.95;;;;;;;11.02;73.69;95288.13;1660410;85;20946;-81
2022/04/24 09:01:57;;;;;;;7.17;5.60;;;;;;;11.10;74.52;95282.69;1655693;85;21496;-82
2022/04/24 09:04:26;;;;;;;5.30;4.78;;;;;;;11.12;73.94;95284.07;1650687;85;21474;-82
2022/04/24 09:06:57;;;;;;;5.45;4.95;;;;;;;11.17;72.86;95278.23;1641060;87;21075;-83
2022/04/24 09:09:23;;;;;;;7.20;4.75;;;;;;;11.23;73.57;95270.90;1618615;87;20990;-84
2022/04/24 09:11:49;;;;;;;6.45;5.12;;;;;;;11.38;73.49;95274.45;1624061;87;21066;-85
2022/04/24 09:14:15;;;;;;;5.87;5.15;;;;;;;11.49;72.82;95280.77;1628955;87;21044;-85
2022/04/24 09:16:47;;;;;;;6.22;5.53;;;;;;;11.55;72.83;95277.30;1634475;87;21383;-84
2022/04/24 09:19:23;;;;;;;6.95;5.62;;;;;;;11.63;73.47;95271.33;1633513;86;21069;-88
2022/04/24 09:21:55;;;;;;;5.62;4.95;;;;;;;11.74;72.99;95269.84;1628878;87;21102;-83
2022/04/24 09:24:21;;;;;;;6.58;5.05;;;;;;;11.83;72.32;95265.16;1633187;86;22115;-86
2022/04/24 09:26:55;;;;;;;6.90;6.05;;;;;;;11.94;72.32;95260.03;1620837;86;21031;-85
2022/04/24 09:29:23;;;;;;;7.78;6.97;;;;;;;12.05;71.37;95270.75;1617014;87;21066;-84
2022/04/24 09:31:50;;;;;;;8.53;7.33;;;;;;;12.22;72.35;95267.34;1637580;87;21058;-85
2022/04/24 09:34:18;;;;;;;8.15;7.35;;;;;;;12.44;72.40;95253.84;1638029;87;20998;-88
2022/04/24 09:36:45;;;;;;;8.33;7.42;;;;;;;12.56;71.37;95252.08;1629965;86;21084;-84
2022/04/24 09:39:11;;;;;;;7.00;5.97;;;;;;;12.80;73.16;95243.81;1626736;86;21418;-83
2022/04/24 09:41:37;;;;;;;7.15;6.33;;;;;;;13.11;71.55;95240.93;1618053;87;21061;-83
2022/04/24 09:44:15;;;;;;;10.28;7.50;;;;;;;13.30;69.54;95240.86;1617621;87;21081;-83
2022/04/24 09:46:40;;;;;;;7.87;6.67;;;;;;;13.36;69.74;95242.59;1616917;87;21082;-83
2022/04/24 09:49:10;;;;;;;6.92;6.22;;;;;;;13.34;68.59;95238.08;1617783;89;21058;-83
2022/04/24 09:51:42;;;;;;;9.65;6.85;;;;;;;13.48;69.63;95243.36;1617437;89;21117;-83
2022/04/24 09:54:08;;;;;;;8.80;6.87;;;;;;;13.85;70.05;95235.30;1618306;87;20975;-83
2022/04/24 09:56:34;;;;;;;7.25;6.25;;;;;;;14.13;69.84;95231.41;1618751;89;21003;-84
2022/04/24 09:59:00;;;;;;;6.78;6.10;;;;;;;14.26;69.55;95229.84;1618440;87;21006;-84
2022/04/24 10:01:29;;;;;;;6.97;5.80;;;;;;;14.32;68.62;95238.59;1618336;87;21005;-84
2022/04/24 10:03:56;;;;;;;5.72;4.87;;;;;;;14.33;68.50;95224.50;1618146;87;20991;-84
2022/04/24 10:06:23;;;;;;;5.78;4.17;;;;;;;14.33;68.22;95221.89;1618861;87;21042;-84
2022/04/24 10:08:50;;;;;;;7.40;4.20;;;;;;;14.30;67.57;95208.75;1628145;87;21049;-84
2022/04/24 10:11:17;;;;;;;4.30;3.90;;;;;;;14.30;67.59;95217.11;1640011;87;21049;-84
2022/04/24 10:13:45;;;;;;;5.28;3.98;;;;;;;14.23;66.10;95217.77;1629338;88;21113;-84
2022/04/24 10:16:48;;;;;;;7.08;3.85;;;;;;;14.20;66.12;95212.50;1579439;88;21100;-84
2022/04/24 10:19:25;;;;;;;7.65;4.47;;;;;;;14.18;66.48;95211.94;1626640;87;21002;-83
2022/04/24 10:22:05;;;;;;;5.90;3.95;;;;;;;14.26;66.21;95195.88;1589413;87;21030;-86
2022/04/24 10:24:44;;;;;;;6.47;4.90;;;;;;;14.49;67.74;95190.33;1600786;87;21034;-84
2022/04/24 10:27:11;;;;;;;5.12;4.05;;;;;;;14.80;67.63;95185.07;1626596;88;21389;-84
2022/04/24 10:29:52;;;;;;;6.75;3.80;;;;;;;15.13;65.97;95184.28;1626440;87;20998;-83
2022/04/24 10:32:27;;;;;;;5.12;3.65;;;;;;;15.38;65.14;95182.56;1637407;87;21089;-84
2022/04/24 10:34:53;;;;;;;5.08;3.90;;;;;;;15.42;64.39;95182.36;1626605;88;21070;-84
2022/04/24 10:37:31;;;;;;;4.35;3.58;;;;;;;15.46;64.10;95171.70;1626051;88;21394;-85
2022/04/24 10:40:00;;;;;;;6.22;3.90;;;;;;;15.52;63.29;95174.13;1626655;88;21473;-84
2022/04/24 10:42:35;;;;;;;8.33;4.80;;;;;;;15.71;63.94;95172.56;1627658;87;21081;-84
2022/04/24 10:45:07;;;;;;;6.45;4.90;;;;;;;15.90;63.18;95171.23;1628301;87;21039;-84
2022/04/24 10:47:42;;;;;;;7.70;5.17;;;;;;;16.06;63.41;95168.27;1627965;88;20998;-84
2022/04/24 10:50:09;;;;;;;6.30;3.65;;;;;;;15.94;61.59;95163.66;1642607;85;21041;-84
2022/04/24 10:52:43;;;;;;;4.50;2.85;;;;;;;15.70;58.80;95159.20;1654439;87;21062;-83
2022/04/24 10:55:15;;;;;;;5.08;3.30;;;;;;;15.56;62.16;95160.04;1636407;87;20974;-84
2022/04/24 10:57:42;;;;;;;;;;;;;;;15.52;63.01;95158.42;1629278;87;21374;-83
2022/04/24 11:00:17;;;;;;;4.65;3.10;;;;;;;15.50;62.53;95159.19;1626715;87;20085;-83
2022/04/24 11:02:43;;;;;;;3.85;3.05;;;;;;;15.47;62.45;95167.53;1628706;87;20986;-83
2022/04/24 11:05:10;;;;;;;4.67;2.80;;;;;;;15.53;62.37;95173.09;1626882;87;20986;-84
2022/04/24 11:07:36;;;;;;;4.25;2.83;;;;;;;15.54;62.35;95172.58;1631088;87;21013;-83
2022/04/24 11:10:09;;;;;;;3.30;2.87;;;;;;;15.64;62.41;95163.59;1627230;87;21014;-84
2022/04/24 11:12:37;;;;;;;4.37;2.87;;;;;;;15.67;60.99;95160.48;1601641;87;21922;-83
2022/04/24 11:15:13;;;;;;;6.53;3.70;;;;;;;15.61;59.97;95167.46;1604094;87;21362;-83
2022/04/24 11:17:39;;;;;;;5.75;3.27;;;;;;;15.51;61.42;95175.69;1627939;87;20998;-84
2022/04/24 11:20:09;;;;;;;10.70;3.47;;;;;;;15.46;62.19;95183.48;1629076;87;21018;-84
2022/04/24 11:22:52;;;;;;;6.75;3.15;;;;;;;15.41;61.13;95185.48;1631379;87;20986;-84
2022/04/24 11:25:21;;;;;;;7.08;3.60;;;;;;;15.35;61.34;95182.53;1627361;87;21420;-83
2022/04/24 11:27:56;;;;;;;8.33;2.85;;;;;;;15.29;61.54;95182.17;1627470;87;21406;-84
2022/04/24 11:30:31;;;;;;;5.42;2.37;;;;;;;15.21;60.75;95175.53;1627711;87;20998;-83
2022/04/24 11:32:59;;;;;;;6.15;2.85;;;;;;;15.16;61.64;95165.00;1630780;85;21014;-83
2022/04/24 11:35:28;;;;;;;5.70;2.87;;;;;;;15.13;61.55;95164.66;1627632;87;20998;-83